Time;durP1;ratioP1;P1;durP2;ratioP2;P2;SDS_P1;SDS_P2;PMS_P1;PMS_P2;Temp;Humidity;BMP_temperature;BMP_pressure;BME280_temperature;BME280_humidity;BME280_pressure;Samples;Min_cycle;Max_cycle;Signal;HPM_P1;HPM_P2
2021/07/10 00:00:30;;;;;;;2.10;1.70;;;19.80;68.50;;;;;;5071439;28;20414;-79
2021/07/10 00:02:55;;;;;;;4.18;1.70;;;19.80;68.40;;;;;;5071281;28;20031;-79
2021/07/10 00:05:21;;;;;;;2.63;1.80;;;19.80;68.40;;;;;;5071364;28;20385;-78
2021/07/10 00:07:48;;;;;;;1.83;1.70;;;19.70;68.10;;;;;;5072555;28;20420;-78
2021/07/10 00:10:16;;;;;;;1.35;1.25;;;19.70;68.40;;;;;;5068973;28;20021;-79
2021/07/10 00:12:42;;;;;;;1.70;1.60;;;19.70;68.50;;;;;;5058567;28;20432;-79
2021/07/10 00:15:11;;;;;;;1.83;1.70;;;19.70;68.40;;;;;;5052350;28;20036;-78
2021/07/10 00:17:37;;;;;;;8.07;2.20;;;19.70;68.30;;;;;;5051081;28;20025;-79
2021/07/10 00:20:05;;;;;;;2.67;1.98;;;19.60;68.20;;;;;;5051048;28;20027;-80
2021/07/10 00:22:31;;;;;;;2.55;1.88;;;19.60;68.20;;;;;;5051136;28;20029;-80
2021/07/10 00:24:57;;;;;;;1.88;1.77;;;19.60;68.30;;;;;;5050942;28;20025;-79
2021/07/10 00:27:23;;;;;;;2.25;1.95;;;19.60;68.40;;;;;;5067069;28;20107;-79
2021/07/10 00:29:48;;;;;;;2.25;2.05;;;19.50;68.30;;;;;;5070432;28;20033;-78
2021/07/10 00:32:14;;;;;;;2.35;1.90;;;19.50;68.40;;;;;;5070981;28;20411;-79
2021/07/10 00:34:40;;;;;;;3.40;2.10;;;19.50;68.60;;;;;;5070407;28;20024;-79
2021/07/10 00:37:06;;;;;;;3.08;2.70;;;19.40;68.50;;;;;;5065397;28;20025;-79
2021/07/10 00:39:32;;;;;;;5.30;2.42;;;19.40;68.50;;;;;;5052234;28;20029;-80
2021/07/10 00:41:58;;;;;;;5.43;1.90;;;19.30;68.90;;;;;;5051874;28;20475;-79
2021/07/10 00:44:23;;;;;;;2.33;1.67;;;19.30;69.00;;;;;;5052201;28;20064;-79
2021/07/10 00:46:49;;;;;;;4.68;2.10;;;19.30;69.00;;;;;;5050718;28;20082;-79
2021/07/10 00:49:15;;;;;;;2.33;2.13;;;19.30;69.00;;;;;;5051755;28;20083;-80
2021/07/10 00:51:41;;;;;;;2.75;2.17;;;19.30;69.00;;;;;;5051738;28;20021;-79
2021/07/10 00:54:06;;;;;;;3.15;2.10;;;19.20;68.90;;;;;;5050741;28;20025;-80
2021/07/10 00:56:33;;;;;;;2.85;1.92;;;19.20;69.10;;;;;;5050326;28;20108;-78
2021/07/10 00:58:59;;;;;;;2.65;2.38;;;19.20;69.30;;;;;;5052049;28;20017;-80
2021/07/10 01:01:25;;;;;;;2.67;2.10;;;19.10;69.40;;;;;;5051946;28;20028;-80
2021/07/10 01:03:51;;;;;;;4.07;2.03;;;19.10;69.70;;;;;;5051835;28;20032;-78
2021/07/10 01:06:17;;;;;;;4.05;2.53;;;19.10;69.80;;;;;;5051973;28;20021;-79
2021/07/10 01:08:45;;;;;;;2.90;2.60;;;19.10;69.80;;;;;;5051797;28;20025;-79
2021/07/10 01:11:12;;;;;;;14.65;2.72;;;19.10;70.00;;;;;;5050512;28;20029;-80
2021/07/10 01:13:38;;;;;;;6.13;2.72;;;19.10;70.20;;;;;;5051963;28;20060;-79
2021/07/10 01:16:05;;;;;;;5.45;2.42;;;19.00;70.20;;;;;;5055471;28;20092;-80
2021/07/10 01:18:31;;;;;;;3.72;2.55;;;19.00;70.20;;;;;;5055745;28;20040;-80
2021/07/10 01:20:57;;;;;;;3.30;2.83;;;19.00;70.20;;;;;;5055487;28;20045;-79
2021/07/10 01:23:25;;;;;;;4.03;2.47;;;19.00;70.20;;;;;;5055597;28;20040;-79
2021/07/10 01:25:52;;;;;;;3.17;2.70;;;19.00;70.20;;;;;;5055469;28;20028;-80
2021/07/10 01:28:19;;;;;;;2.90;2.20;;;19.00;70.20;;;;;;5054335;28;20025;-79
2021/07/10 01:30:48;;;;;;;5.47;2.53;;;19.00;70.40;;;;;;5055703;28;20100;-79
2021/07/10 01:33:14;;;;;;;2.20;2.00;;;19.00;70.40;;;;;;5055450;28;20025;-80
2021/07/10 01:35:40;;;;;;;2.22;2.03;;;19.00;71.20;;;;;;5054142;28;20021;-80
2021/07/10 01:38:09;;;;;;;2.20;2.00;;;19.00;70.40;;;;;;5065362;28;20066;-79
2021/07/10 01:40:36;;;;;;;2.70;2.30;;;18.90;70.30;;;;;;5055216;28;20027;-80
2021/07/10 01:43:05;;;;;;;2.72;2.35;;;18.90;70.20;;;;;;5055289;28;20021;-80
2021/07/10 01:45:32;;;;;;;2.17;1.98;;;18.90;70.30;;;;;;5055216;28;20457;-80
2021/07/10 01:47:58;;;;;;;2.55;2.33;;;18.90;70.40;;;;;;5055078;28;20100;-80
2021/07/10 01:50:24;;;;;;;5.85;2.88;;;18.90;70.30;;;;;;5054917;28;20068;-80
2021/07/10 01:52:51;;;;;;;4.50;2.72;;;18.90;70.40;;;;;;5054943;28;20025;-78
2021/07/10 01:55:17;;;;;;;2.95;2.72;;;18.90;70.50;;;;;;5054899;28;20146;-79
2021/07/10 01:57:46;;;;;;;3.90;2.85;;;18.90;70.60;;;;;;5053631;28;20025;-80
2021/07/10 02:00:33;;;;;;;3.08;2.78;;;18.80;70.30;;;;;;5054847;28;20045;-79
2021/07/10 02:03:01;;;;;;;2.47;2.17;;;18.80;70.10;;;;;;5054763;28;20083;-79
2021/07/10 02:05:28;;;;;;;3.72;3.03;;;18.90;70.50;;;;;;5054699;28;20055;-79
2021/07/10 02:07:56;;;;;;;4.30;2.88;;;18.80;70.30;;;;;;5054624;28;20033;-80
2021/07/10 02:10:22;;;;;;;5.55;3.08;;;18.80;70.30;;;;;;5054565;28;20418;-80
2021/07/10 02:12:54;;;;;;;2.80;2.38;;;18.80;70.40;;;;;;5053364;28;20024;-79
2021/07/10 02:15:20;;;;;;;6.30;3.17;;;18.80;70.40;;;;;;5054555;28;20025;-79
2021/07/10 02:17:47;;;;;;;6.30;3.70;;;18.80;70.30;;;;;;5054617;28;20070;-79
2021/07/10 02:20:18;;;;;;;3.30;3.00;;;18.70;70.10;;;;;;5054482;28;20048;-79
2021/07/10 02:22:44;;;;;;;5.85;3.20;;;18.70;70.20;;;;;;5054371;28;20397;-78
2021/07/10 02:25:12;;;;;;;3.40;3.10;;;18.70;70.20;;;;;;5054150;28;20112;-79
2021/07/10 02:27:38;;;;;;;3.85;3.15;;;18.60;70.20;;;;;;5053514;28;20025;-79
2021/07/10 02:30:14;;;;;;;4.25;2.67;;;18.60;70.40;;;;;;5054237;28;20064;-79
2021/07/10 02:32:40;;;;;;;3.78;2.80;;;18.60;70.60;;;;;;5054427;28;20024;-78
2021/07/10 02:35:08;;;;;;;5.20;2.58;;;18.60;70.60;;;;;;5053948;28;20028;-79
2021/07/10 02:37:34;;;;;;;4.00;3.13;;;18.60;70.70;;;;;;5053859;28;20021;-79
2021/07/10 02:40:01;;;;;;;6.40;3.33;;;18.60;70.70;;;;;;5054156;28;20028;-80
2021/07/10 02:42:27;;;;;;;5.20;3.40;;;18.50;70.40;;;;;;5052807;28;20048;-81
2021/07/10 02:44:52;;;;;;;6.88;3.78;;;18.50;70.50;;;;;;5052836;28;20048;-80
2021/07/10 02:47:18;;;;;;;5.40;3.25;;;18.50;70.60;;;;;;5054052;28;20054;-81
2021/07/10 02:49:44;;;;;;;9.20;4.15;;;18.50;70.70;;;;;;5052510;28;20045;-81
2021/07/10 02:52:11;;;;;;;4.38;3.00;;;18.50;70.70;;;;;;5052569;28;20158;-81
2021/07/10 02:54:38;;;;;;;5.45;3.60;;;18.40;70.60;;;;;;5052541;28;20546;-80
2021/07/10 02:57:04;;;;;;;5.00;3.25;;;18.40;70.50;;;;;;5053848;28;20372;-80
2021/07/10 02:59:30;;;;;;;4.50;3.17;;;18.40;70.50;;;;;;5052442;28;20467;-80
2021/07/10 03:01:56;;;;;;;7.38;3.63;;;18.30;70.50;;;;;;5053609;28;20171;-79
2021/07/10 03:04:22;;;;;;;6.75;3.40;;;18.30;70.60;;;;;;5053581;28;20065;-80
2021/07/10 03:06:48;;;;;;;6.25;3.45;;;18.30;70.60;;;;;;5052263;28;20037;-80
2021/07/10 03:09:14;;;;;;;8.52;3.47;;;18.30;70.60;;;;;;5052151;28;20033;-80
2021/07/10 03:11:40;;;;;;;5.22;3.97;;;18.30;70.80;;;;;;5053460;28;20063;-80
2021/07/10 03:14:06;;;;;;;9.43;4.20;;;18.30;70.90;;;;;;5053279;28;20024;-79
2021/07/10 03:16:32;;;;;;;4.68;3.00;;;18.30;70.90;;;;;;5053490;28;20017;-80
2021/07/10 03:18:57;;;;;;;6.43;3.08;;;18.30;71.10;;;;;;5053192;28;20017;-80
2021/07/10 03:21:23;;;;;;;3.28;2.83;;;18.30;71.10;;;;;;5053313;28;20025;-80
2021/07/10 03:23:49;;;;;;;5.97;2.58;;;18.30;71.20;;;;;;5053182;28;20027;-79
2021/07/10 03:26:14;;;;;;;6.93;3.22;;;18.30;71.30;;;;;;5052014;28;20067;-80
2021/07/10 03:28:40;;;;;;;6.18;3.67;;;18.30;71.20;;;;;;5053225;28;20036;-79
2021/07/10 03:31:07;;;;;;;3.50;3.20;;;18.30;71.00;;;;;;5051882;28;20028;-79
2021/07/10 03:33:36;;;;;;;4.78;3.85;;;18.30;71.00;;;;;;5056106;28;20482;-79
2021/07/10 03:36:05;;;;;;;4.15;2.95;;;18.30;71.10;;;;;;5071827;28;20024;-79
2021/07/10 03:38:31;;;;;;;3.88;3.10;;;18.30;71.40;;;;;;5067936;28;20025;-80
2021/07/10 03:40:57;;;;;;;4.40;2.97;;;18.30;71.50;;;;;;5053108;28;20099;-80
2021/07/10 03:43:23;;;;;;;3.53;2.72;;;18.30;71.40;;;;;;5053132;28;20100;-81
2021/07/10 03:45:52;;;;;;;3.00;2.70;;;18.30;71.60;;;;;;5052959;28;20032;-79
2021/07/10 03:48:21;;;;;;;2.95;2.65;;;18.40;71.60;;;;;;5069184;28;20057;-80
2021/07/10 03:50:47;;;;;;;3.33;2.90;;;18.40;71.70;;;;;;5052614;28;20406;-80
2021/07/10 03:53:13;;;;;;;3.72;2.80;;;18.40;71.60;;;;;;5054198;28;20395;-80
2021/07/10 03:55:39;;;;;;;3.08;2.60;;;18.40;71.70;;;;;;5052077;28;20025;-79
2021/07/10 03:58:05;;;;;;;3.15;2.60;;;18.40;71.70;;;;;;5068251;28;20128;-79
2021/07/10 04:00:31;;;;;;;4.55;3.17;;;18.40;71.70;;;;;;5052695;28;20048;-79
2021/07/10 04:02:57;;;;;;;3.60;2.63;;;18.40;71.70;;;;;;5051297;28;20098;-80
2021/07/10 04:05:23;;;;;;;2.83;2.35;;;18.50;71.80;;;;;;5051264;28;20552;-80
2021/07/10 04:07:49;;;;;;;2.75;2.47;;;18.50;71.80;;;;;;5051150;28;20029;-80
2021/07/10 04:10:15;;;;;;;2.67;2.47;;;18.50;71.80;;;;;;5051254;28;20052;-80
2021/07/10 04:12:43;;;;;;;4.35;3.17;;;18.50;71.80;;;;;;5052069;28;20025;-79
2021/07/10 04:15:11;;;;;;;4.43;2.90;;;18.60;71.60;;;;;;5052396;28;20033;-79
2021/07/10 04:17:37;;;;;;;3.67;3.28;;;18.60;71.40;;;;;;5053299;28;20378;-80
2021/07/10 04:20:05;;;;;;;4.45;3.10;;;18.60;71.20;;;;;;5053103;28;20028;-80
2021/07/10 04:22:30;;;;;;;4.90;3.15;;;18.70;71.00;;;;;;5053103;28;20017;-80
2021/07/10 04:24:56;;;;;;;5.32;2.92;;;18.70;70.80;;;;;;5053090;28;20032;-79
2021/07/10 04:27:22;;;;;;;4.65;2.97;;;18.70;71.00;;;;;;5053046;28;20071;-79
2021/07/10 04:29:49;;;;;;;3.70;2.80;;;18.70;70.80;;;;;;5053028;28;20100;-80
2021/07/10 04:32:18;;;;;;;3.35;3.05;;;18.70;71.10;;;;;;5053044;28;20021;-80
2021/07/10 04:34:44;;;;;;;5.22;3.63;;;18.80;71.10;;;;;;5052841;28;20065;-80
2021/07/10 04:37:09;;;;;;;4.60;3.35;;;18.80;71.30;;;;;;5051543;28;20049;-80
2021/07/10 04:39:35;;;;;;;3.85;3.33;;;18.90;71.10;;;;;;5052906;28;20025;-81
2021/07/10 04:42:01;;;;;;;4.85;3.72;;;18.90;71.90;;;;;;5052945;28;20098;-79
2021/07/10 04:44:27;;;;;;;7.78;3.88;;;19.00;71.10;;;;;;5052931;28;20021;-79
2021/07/10 04:46:53;;;;;;;5.93;4.60;;;19.10;71.30;;;;;;5051628;28;20467;-79
2021/07/10 04:49:19;;;;;;;9.18;5.95;;;19.20;71.40;;;;;;5053307;28;20061;-79
2021/07/10 04:51:45;;;;;;;11.65;7.93;;;19.30;70.80;;;;;;5055569;28;20372;-80
2021/07/10 04:54:10;;;;;;;16.80;10.95;;;19.40;70.40;;;;;;5055555;28;20041;-80
2021/07/10 04:56:36;;;;;;;23.00;15.27;;;19.50;70.00;;;;;;5056840;28;20025;-79
2021/07/10 04:59:02;;;;;;;34.45;21.50;;;19.60;69.30;;;;;;5056717;28;20028;-79
2021/07/10 05:01:28;;;;;;;50.53;27.42;;;19.70;69.60;;;;;;5055432;28;20025;-80
2021/07/10 05:03:54;;;;;;;36.60;22.90;;;19.70;69.70;;;;;;5056655;28;20386;-79
2021/07/10 05:06:19;;;;;;;31.35;21.20;;;19.90;68.80;;;;;;5056500;28;20509;-80
2021/07/10 05:08:46;;;;;;;42.35;28.00;;;19.90;68.80;;;;;;5056539;28;20025;-79
2021/07/10 05:11:12;;;;;;;54.60;33.78;;;20.00;68.50;;;;;;5055326;28;20029;-79
2021/07/10 05:13:38;;;;;;;61.33;34.00;;;20.10;68.30;;;;;;5056460;28;20021;-80
2021/07/10 05:16:04;;;;;;;66.72;41.03;;;20.20;68.20;;;;;;5055340;28;20013;-80
2021/07/10 05:18:30;;;;;;;72.13;40.50;;;20.20;67.50;;;;;;5056497;28;20029;-79
2021/07/10 05:20:55;;;;;;;57.33;35.83;;;20.30;67.20;;;;;;5056324;28;20498;-80
2021/07/10 05:23:21;;;;;;;57.35;34.60;;;20.30;67.30;;;;;;5055175;28;20386;-79
2021/07/10 05:25:47;;;;;;;55.38;32.83;;;20.40;68.20;;;;;;5056091;28;20044;-79
2021/07/10 05:28:13;;;;;;;55.75;31.58;;;20.40;67.40;;;;;;5056205;28;20025;-80
2021/07/10 05:30:38;;;;;;;52.20;31.42;;;20.50;67.30;;;;;;5054773;28;20082;-79
2021/07/10 05:33:06;;;;;;;58.60;31.67;;;20.50;67.20;;;;;;5057794;28;20029;-79
2021/07/10 05:35:34;;;;;;;38.65;25.15;;;20.50;67.00;;;;;;5064545;28;20513;-78
2021/07/10 05:38:00;;;;;;;36.75;23.52;;;20.50;66.90;;;;;;5055815;28;20387;-80
2021/07/10 05:40:26;;;;;;;21.75;14.25;;;20.50;67.20;;;;;;5054627;28;20029;-79
2021/07/10 05:42:53;;;;;;;20.08;11.80;;;20.50;66.60;;;;;;5054607;28;20437;-80
2021/07/10 05:45:19;;;;;;;14.82;9.52;;;20.50;65.80;;;;;;5054555;28;20402;-79
2021/07/10 05:47:45;;;;;;;23.08;15.20;;;20.60;67.00;;;;;;5055797;28;20025;-80
2021/07/10 05:50:11;;;;;;;16.13;10.73;;;20.60;67.60;;;;;;5054311;28;20402;-80
2021/07/10 05:52:38;;;;;;;12.18;7.13;;;20.60;68.00;;;;;;5055669;28;20025;-79
2021/07/10 05:55:06;;;;;;;6.55;4.78;;;20.70;68.40;;;;;;5054302;28;20061;-79
2021/07/10 05:57:32;;;;;;;5.97;3.95;;;20.70;68.00;;;;;;5055975;28;20025;-80
2021/07/10 05:59:58;;;;;;;6.80;3.85;;;20.80;67.30;;;;;;5055724;28;20027;-79
2021/07/10 06:02:24;;;;;;;7.18;3.88;;;20.80;67.20;;;;;;5055508;28;20096;-79
2021/07/10 06:04:49;;;;;;;5.22;4.03;;;20.90;67.50;;;;;;5054101;28;20132;-81
2021/07/10 06:07:15;;;;;;;7.38;4.90;;;20.90;67.20;;;;;;5055453;28;20079;-81
2021/07/10 06:09:41;;;;;;;7.68;5.80;;;21.00;66.50;;;;;;5054125;28;20029;-80
2021/07/10 06:12:08;;;;;;;9.15;5.72;;;21.10;66.30;;;;;;5055339;28;20029;-79
2021/07/10 06:14:34;;;;;;;7.55;5.53;;;21.10;66.60;;;;;;5054099;28;20045;-80
2021/07/10 06:17:00;;;;;;;10.50;6.30;;;21.20;67.00;;;;;;5058779;28;20047;-80
2021/07/10 06:19:26;;;;;;;7.18;5.43;;;21.20;67.00;;;;;;5058960;28;20445;-80
2021/07/10 06:21:52;;;;;;;7.63;5.60;;;21.30;67.30;;;;;;5060755;28;20192;-81
2021/07/10 06:24:19;;;;;;;6.88;5.75;;;21.30;66.90;;;;;;5060938;28;20055;-79
2021/07/10 06:26:45;;;;;;;9.52;5.75;;;21.40;67.00;;;;;;5060567;28;20439;-78
2021/07/10 06:29:11;;;;;;;10.73;6.10;;;21.40;66.50;;;;;;5060149;28;20029;-78
2021/07/10 06:31:37;;;;;;;10.05;5.95;;;21.50;66.70;;;;;;5060575;28;20079;-79
2021/07/10 06:34:04;;;;;;;8.93;6.07;;;21.50;65.80;;;;;;5068982;28;20021;-80
2021/07/10 06:36:30;;;;;;;7.63;5.97;;;21.50;66.10;;;;;;5074545;28;20020;-80
2021/07/10 06:38:55;;;;;;;10.63;7.15;;;21.60;65.80;;;;;;5075821;28;20031;-80
2021/07/10 06:41:21;;;;;;;8.48;6.18;;;21.60;66.20;;;;;;5075629;28;20031;-80
2021/07/10 06:43:47;;;;;;;7.57;6.13;;;21.70;66.10;;;;;;5074010;28;20363;-80
2021/07/10 06:46:13;;;;;;;9.80;6.47;;;21.80;66.10;;;;;;5075309;28;20095;-80
2021/07/10 06:48:39;;;;;;;12.45;6.95;;;21.80;66.50;;;;;;5075455;28;20103;-79
2021/07/10 06:51:05;;;;;;;12.48;6.93;;;21.80;65.60;;;;;;5075298;28;20501;-80
2021/07/10 06:53:31;;;;;;;8.32;6.60;;;21.90;66.30;;;;;;5073759;28;20368;-79
2021/07/10 06:55:57;;;;;;;9.48;7.20;;;22.00;66.00;;;;;;5073748;28;20573;-79
2021/07/10 06:58:23;;;;;;;12.30;8.10;;;22.00;65.10;;;;;;5071462;28;20474;-80
2021/07/10 07:00:49;;;;;;;10.43;7.63;;;22.10;65.60;;;;;;5068575;28;20054;-80
2021/07/10 07:03:15;;;;;;;11.20;7.82;;;22.20;64.70;;;;;;5065862;28;20025;-79
2021/07/10 07:05:40;;;;;;;11.68;7.03;;;22.20;64.10;;;;;;5053111;28;20100;-79
2021/07/10 07:08:06;;;;;;;10.75;7.38;;;22.30;64.50;;;;;;5053310;28;20466;-80
2021/07/10 07:10:32;;;;;;;9.70;7.25;;;22.30;62.80;;;;;;5055296;28;20029;-79
2021/07/10 07:12:58;;;;;;;7.70;6.05;;;22.30;64.10;;;;;;5067443;28;20051;-79
2021/07/10 07:15:24;;;;;;;9.02;6.97;;;22.40;64.70;;;;;;5073187;28;20099;-80
2021/07/10 07:17:50;;;;;;;9.63;7.32;;;22.40;64.00;;;;;;5074671;28;20024;-80
2021/07/10 07:20:17;;;;;;;11.52;7.45;;;22.50;63.00;;;;;;5074358;28;20432;-79
2021/07/10 07:22:47;;;;;;;7.28;6.25;;;22.50;62.40;;;;;;5074269;28;20021;-79
2021/07/10 07:25:15;;;;;;;10.48;6.97;;;22.50;63.30;;;;;;5074122;28;20164;-80
2021/07/10 07:27:41;;;;;;;8.75;6.55;;;22.60;63.30;;;;;;5069961;28;20036;-79
2021/07/10 07:30:08;;;;;;;9.43;7.00;;;22.70;63.00;;;;;;5053999;28;20505;-79
2021/07/10 07:32:34;;;;;;;9.88;7.13;;;22.70;63.10;;;;;;5052560;28;20548;-79
2021/07/10 07:35:02;;;;;;;12.45;7.72;;;22.80;61.80;;;;;;5053644;28;20032;-80
2021/07/10 07:37:28;;;;;;;11.13;8.00;;;22.80;61.50;;;;;;5053663;28;20482;-79
2021/07/10 07:39:54;;;;;;;9.40;7.13;;;22.90;62.40;;;;;;5053545;28;20047;-79
2021/07/10 07:42:20;;;;;;;14.43;9.60;;;22.90;63.50;;;;;;5052345;28;20025;-78
2021/07/10 07:44:46;;;;;;;11.63;8.15;;;23.00;62.40;;;;;;5053658;28;20040;-79
2021/07/10 07:47:14;;;;;;;9.02;7.63;;;23.10;63.10;;;;;;5069812;28;20425;-79
2021/07/10 07:49:40;;;;;;;10.35;8.48;;;23.20;63.20;;;;;;5073320;28;20043;-78
2021/07/10 07:52:07;;;;;;;13.75;9.15;;;23.30;63.00;;;;;;5072003;28;20044;-79
2021/07/10 07:54:34;;;;;;;11.77;8.80;;;23.40;62.60;;;;;;5072102;28;20401;-79
2021/07/10 07:57:00;;;;;;;10.88;9.30;;;23.40;61.90;;;;;;5072937;28;20024;-79
2021/07/10 07:59:26;;;;;;;11.38;8.93;;;23.50;60.70;;;;;;5057364;28;20021;-78
2021/07/10 08:01:53;;;;;;;12.68;9.07;;;23.60;60.30;;;;;;5066033;28;20021;-79
2021/07/10 08:04:19;;;;;;;9.13;7.45;;;23.60;60.30;;;;;;5078582;28;20028;-78
2021/07/10 08:06:44;;;;;;;9.30;7.15;;;23.70;60.30;;;;;;5088384;28;20056;-80
2021/07/10 08:09:11;;;;;;;9.10;7.57;;;23.70;61.50;;;;;;5072884;28;20025;-80
2021/07/10 08:11:37;;;;;;;11.00;9.00;;;23.80;61.00;;;;;;5069122;28;20032;-79
2021/07/10 08:14:03;;;;;;;17.05;9.30;;;23.90;61.10;;;;;;5071083;28;20059;-80
2021/07/10 08:16:29;;;;;;;11.35;9.18;;;24.00;61.70;;;;;;5083409;28;20044;-79
2021/07/10 08:18:55;;;;;;;10.35;8.10;;;24.10;59.70;;;;;;5091301;28;20059;-79
2021/07/10 08:21:21;;;;;;;11.23;9.25;;;24.10;60.80;;;;;;5076269;28;20029;-78
2021/07/10 08:23:47;;;;;;;12.85;9.15;;;24.20;60.80;;;;;;5062711;28;20044;-79
2021/07/10 08:26:13;;;;;;;10.38;8.25;;;24.20;59.50;;;;;;5051023;28;20033;-79
2021/07/10 08:28:39;;;;;;;10.35;7.40;;;24.30;59.70;;;;;;5052614;28;20079;-77
2021/07/10 08:31:06;;;;;;;7.63;5.25;;;24.40;60.10;;;;;;5053215;28;20036;-79
2021/07/10 08:33:32;;;;;;;5.13;4.55;;;24.40;60.00;;;;;;5052038;28;20082;-78
2021/07/10 08:35:58;;;;;;;5.15;3.97;;;24.50;58.10;;;;;;5062412;28;20056;-78
2021/07/10 08:38:26;;;;;;;4.55;3.35;;;24.50;59.30;;;;;;5057322;28;20117;-79
2021/07/10 08:40:53;;;;;;;6.07;3.47;;;24.60;59.50;;;;;;5051268;28;20490;-79
2021/07/10 08:43:20;;;;;;;5.90;3.78;;;24.60;58.40;;;;;;5053721;28;20112;-79
2021/07/10 08:45:48;;;;;;;4.80;3.25;;;24.70;59.50;;;;;;5050737;28;20067;-78
2021/07/10 08:48:15;;;;;;;3.00;2.40;;;24.70;59.10;;;;;;5052809;28;20102;-79
2021/07/10 08:50:44;;;;;;;2.50;1.88;;;24.70;57.70;;;;;;5052446;28;20402;-80
2021/07/10 08:53:10;;;;;;;2.30;2.10;;;24.70;57.30;;;;;;5057157;28;20020;-78
2021/07/10 08:55:36;;;;;;;2.70;2.30;;;24.80;56.10;;;;;;5058688;28;20487;-78
2021/07/10 08:58:03;;;;;;;6.00;2.20;;;24.80;57.90;;;;;;5052882;28;20486;-78
2021/07/10 09:00:38;;;;;;;3.05;2.70;;;24.80;57.40;;;;;;5063816;28;20078;-80
2021/07/10 09:03:06;;;;;;;4.75;2.55;;;24.90;57.70;;;;;;5055248;28;20028;-78
2021/07/10 09:05:33;;;;;;;3.42;2.20;;;24.90;55.80;;;;;;5052509;28;20112;-78
2021/07/10 09:08:16;;;;;;;2.17;1.92;;;24.90;55.50;;;;;;5060169;28;20021;-79
2021/07/10 09:10:45;;;;;;;3.45;2.15;;;24.90;55.50;;;;;;5071747;28;20386;-79
2021/07/10 09:13:12;;;;;;;3.08;2.38;;;25.00;56.60;;;;;;5067025;28;20036;-79
2021/07/10 09:15:39;;;;;;;10.60;3.30;;;25.00;57.60;;;;;;5057659;28;20025;-78
2021/07/10 09:18:09;;;;;;;3.78;3.03;;;25.10;57.70;;;;;;5052556;28;20017;-78
2021/07/10 09:20:35;;;;;;;3.97;3.05;;;25.20;57.30;;;;;;5066126;28;20374;-78
2021/07/10 09:23:02;;;;;;;3.70;2.50;;;25.20;56.50;;;;;;5066885;28;20405;-79
2021/07/10 09:25:32;;;;;;;4.65;2.50;;;25.30;57.70;;;;;;5064874;28;20027;-78
2021/07/10 09:28:02;;;;;;;5.18;3.00;;;25.40;57.40;;;;;;5063067;28;20024;-79
2021/07/10 09:30:37;;;;;;;4.00;2.05;;;25.50;57.20;;;;;;5074167;28;20016;-79
2021/07/10 09:33:17;;;;;;;3.35;2.42;;;25.50;56.10;;;;;;5053129;28;20106;-78
2021/07/10 09:35:50;;;;;;;3.42;2.10;;;25.50;55.30;;;;;;5053270;28;20033;-79
2021/07/10 09:38:34;;;;;;;3.23;1.93;;;25.60;55.00;;;;;;5055795;28;20032;-79
2021/07/10 09:41:09;;;;;;;2.28;1.65;;;25.60;54.50;;;;;;5064620;28;20027;-78
2021/07/10 09:43:38;;;;;;;3.35;2.50;;;25.70;54.90;;;;;;5059701;28;20116;-78
2021/07/10 09:46:08;;;;;;;5.38;3.00;;;25.80;55.60;;;;;;5060872;28;20065;-79
2021/07/10 09:48:37;;;;;;;5.43;2.47;;;25.90;54.70;;;;;;5074718;28;20507;-79
2021/07/10 09:51:23;;;;;;;4.30;3.40;;;26.00;55.30;;;;;;5069866;28;20036;-78
2021/07/10 09:54:03;;;;;;;5.70;2.90;;;26.00;55.40;;;;;;5064049;28;20064;-78
2021/07/10 09:56:31;;;;;;;11.77;1.50;;;26.10;56.30;;;;;;5072187;28;20482;-78
2021/07/10 09:58:57;;;;;;;3.03;1.67;;;26.10;51.60;;;;;;5057096;28;20028;-77
2021/07/10 10:01:31;;;;;;;1.58;1.48;;;26.10;51.90;;;;;;5055431;28;20024;-78
2021/07/10 10:03:57;;;;;;;3.65;1.65;;;26.10;51.70;;;;;;5055310;28;20031;-77
2021/07/10 10:06:35;;;;;;;3.30;2.00;;;26.20;52.20;;;;;;5070767;28;20127;-77
2021/07/10 10:09:19;;;;;;;3.55;2.50;;;26.20;52.90;;;;;;5075179;28;20028;-77
2021/07/10 10:12:02;;;;;;;5.10;3.28;;;26.30;53.90;;;;;;5055297;28;20021;-77
2021/07/10 10:14:35;;;;;;;3.47;2.25;;;26.30;53.50;;;;;;5055164;28;20395;-76
2021/07/10 10:17:01;;;;;;;4.05;1.70;;;26.40;53.00;;;;;;5055174;28;20036;-77
2021/07/10 10:19:30;;;;;;;3.78;2.28;;;26.50;54.20;;;;;;5055092;28;20100;-77
2021/07/10 10:21:59;;;;;;;3.78;2.58;;;26.50;52.80;;;;;;5071820;28;20370;-77
2021/07/10 10:24:27;;;;;;;2.88;2.10;;;26.50;51.20;;;;;;5073856;28;20255;-77
2021/07/10 10:26:53;;;;;;;2.85;1.60;;;26.50;52.20;;;;;;5073009;28;20056;-77
2021/07/10 10:29:22;;;;;;;2.75;2.40;;;26.60;52.20;;;;;;5073737;28;20024;-77
2021/07/10 10:31:49;;;;;;;3.33;2.20;;;26.60;51.00;;;;;;5073676;28;20031;-76
2021/07/10 10:34:15;;;;;;;3.03;2.20;;;26.60;50.90;;;;;;5070981;28;20134;-77
2021/07/10 10:36:43;;;;;;;3.10;2.47;;;26.70;53.00;;;;;;5074541;28;20063;-77
2021/07/10 10:39:31;;;;;;;5.38;3.50;;;26.70;52.30;;;;;;5073112;28;20020;-77
2021/07/10 10:42:01;;;;;;;4.70;3.08;;;26.80;50.90;;;;;;5073477;28;20549;-77
2021/07/10 10:44:42;;;;;;;3.80;2.60;;;26.80;50.20;;;;;;5054401;28;20502;-77
2021/07/10 10:47:09;;;;;;;5.57;2.78;;;26.80;51.70;;;;;;5053136;28;20025;-77
2021/07/10 10:49:36;;;;;;;4.22;3.03;;;26.80;50.80;;;;;;5052805;28;20045;-77
2021/07/10 10:52:23;;;;;;;5.43;2.60;;;26.90;52.70;;;;;;5052958;28;20024;-77
2021/07/10 10:54:55;;;;;;;5.80;3.72;;;27.00;52.80;;;;;;5054329;28;20331;-77
2021/07/10 10:57:37;;;;;;;4.28;3.00;;;27.00;52.50;;;;;;5054205;28;20508;-77
2021/07/10 11:00:35;;;;;;;2.15;1.70;;;27.10;51.80;;;;;;5054208;28;20017;-76
2021/07/10 11:03:20;;;;;;;3.55;2.42;;;27.10;51.40;;;;;;5072503;28;20382;-76
2021/07/10 11:05:48;;;;;;;2.88;1.95;;;27.20;50.90;;;;;;5067237;28;20020;-76
2021/07/10 11:08:26;;;;;;;2.25;1.85;;;27.20;51.50;;;;;;5062379;28;20021;-77
2021/07/10 11:10:57;;;;;;;2.63;2.03;;;27.20;49.50;;;;;;5072171;28;20017;-76
2021/07/10 11:13:40;;;;;;;3.90;2.85;;;27.30;51.10;;;;;;5067574;28;20029;-75
2021/07/10 11:16:17;;;;;;;3.25;2.22;;;27.30;52.30;;;;;;5072090;28;20029;-78
2021/07/10 11:19:05;;;;;;;2.72;2.30;;;27.30;49.70;;;;;;5072785;28;20040;-77
2021/07/10 11:26:52;;;;;;;3.35;2.20;;;27.40;49.30;;;;;;5072825;28;20029;-76
2021/07/10 11:29:28;;;;;;;1.90;1.70;;;27.40;48.70;;;;;;5073535;28;20047;-75
2021/07/10 11:32:14;;;;;;;3.45;2.60;;;27.50;47.60;;;;;;5060064;28;20024;-75
2021/07/10 11:34:47;;;;;;;3.70;1.95;;;27.50;48.70;;;;;;5064131;28;20020;-76
2021/07/10 11:37:15;;;;;;;3.03;1.77;;;27.50;47.50;;;;;;5072426;28;20423;-76
2021/07/10 11:39:51;;;;;;;1.48;1.17;;;27.60;49.70;;;;;;5051950;28;20040;-76
2021/07/10 11:42:25;;;;;;;3.67;1.60;;;27.60;47.60;;;;;;5053407;28;20060;-76
2021/07/10 11:44:54;;;;;;;1.83;1.60;;;27.70;48.00;;;;;;5071344;28;20024;-75
2021/07/10 11:47:40;;;;;;;2.17;1.63;;;27.70;49.50;;;;;;5072275;28;20028;-74
2021/07/10 11:50:08;;;;;;;2.60;2.40;;;27.80;49.50;;;;;;5072011;28;20052;-75
2021/07/10 11:52:34;;;;;;;2.28;1.95;;;27.90;50.10;;;;;;5072024;28;20023;-75
2021/07/10 11:55:03;;;;;;;2.47;1.98;;;27.90;47.40;;;;;;5071073;28;20029;-75
2021/07/10 11:57:38;;;;;;;4.22;3.03;;;27.90;50.60;;;;;;5068584;28;20378;-76
2021/07/10 12:00:10;;;;;;;2.33;1.63;;;28.00;49.70;;;;;;5071775;28;20038;-75
2021/07/10 12:02:36;;;;;;;3.58;1.65;;;28.20;49.70;;;;;;5071538;28;20166;-75
2021/07/10 12:05:06;;;;;;;1.50;1.40;;;28.20;46.70;;;;;;5070181;28;20119;-75
2021/07/10 12:07:53;;;;;;;1.85;1.23;;;28.10;46.60;;;;;;5070834;28;20386;-76
2021/07/10 12:10:23;;;;;;;5.40;3.47;;;28.20;47.30;;;;;;5070230;28;20024;-76
2021/07/10 12:13:12;;;;;;;3.50;2.80;;;28.20;49.40;;;;;;5071437;28;20028;-75
2021/07/10 12:15:40;;;;;;;2.20;1.70;;;28.30;48.80;;;;;;5070157;28;20458;-75
2021/07/10 12:18:08;;;;;;;2.08;1.67;;;28.30;46.70;;;;;;5051695;28;20040;-75
2021/07/10 12:20:40;;;;;;;1.77;1.55;;;28.30;45.80;;;;;;5051953;28;20024;-75
2021/07/10 12:23:11;;;;;;;4.03;2.20;;;28.30;47.00;;;;;;5050802;28;20041;-75
2021/07/10 12:25:49;;;;;;;4.43;3.30;;;28.30;48.00;;;;;;5052189;28;20079;-76
2021/07/10 12:28:17;;;;;;;5.97;4.53;;;28.30;49.20;;;;;;5050628;28;20091;-76
2021/07/10 12:30:44;;;;;;;5.32;3.65;;;28.40;48.60;;;;;;5051895;28;20025;-76
2021/07/10 12:33:30;;;;;;;5.75;3.92;;;28.50;48.30;;;;;;5050407;28;20056;-76
2021/07/10 12:36:03;;;;;;;4.05;3.20;;;28.60;49.50;;;;;;5053394;28;20871;-74
2021/07/10 12:38:29;;;;;;;2.17;1.88;;;28.70;47.40;;;;;;5071681;28;20047;-75
2021/07/10 12:40:55;;;;;;;2.40;2.00;;;28.70;48.20;;;;;;5071725;28;20044;-75
2021/07/10 12:43:24;;;;;;;2.95;2.65;;;28.80;47.20;;;;;;5067072;28;20067;-75
2021/07/10 12:46:00;;;;;;;1.58;1.23;;;28.80;48.60;;;;;;5051745;28;20036;-75
2021/07/10 12:48:26;;;;;;;1.95;1.75;;;28.80;44.60;;;;;;5052932;28;20065;-75
2021/07/10 12:50:52;;;;;;;2.47;1.55;;;28.80;43.50;;;;;;5050082;28;20075;-75
2021/07/10 12:53:18;;;;;;;1.63;1.52;;;28.80;45.70;;;;;;5051708;28;20029;-75